createdAt,value
2023-04-16T00:01:28.129Z,62.63
2023-04-16T00:03:54.833Z,62.74
2023-04-16T00:06:22.282Z,62.62
2023-04-16T00:08:48.721Z,65.00
2023-04-16T00:11:15.433Z,63.89
2023-04-16T00:13:42.043Z,63.98
2023-04-16T00:16:08.506Z,62.63
2023-04-16T00:18:35.201Z,62.84
2023-04-16T00:21:02.938Z,64.91
2023-04-16T00:23:30.389Z,64.00
2023-04-16T00:25:57.983Z,64.49
2023-04-16T00:28:24.586Z,65.05
2023-04-16T00:30:51.064Z,64.77
2023-04-16T00:33:17.584Z,65.95
2023-04-16T00:35:44.006Z,65.36
2023-04-16T00:38:10.402Z,64.96
2023-04-16T00:40:36.832Z,65.68
2023-04-16T00:43:03.225Z,65.65
2023-04-16T00:45:29.690Z,65.17
2023-04-16T00:47:56.124Z,66.36
2023-04-16T00:50:22.568Z,67.49
2023-04-16T00:52:48.979Z,67.03
2023-04-16T00:55:15.592Z,66.25
2023-04-16T00:57:42.016Z,67.17
2023-04-16T01:00:08.461Z,68.88
2023-04-16T01:02:35.055Z,66.06
2023-04-16T01:05:01.600Z,65.65
2023-04-16T01:07:28.041Z,66.33
2023-04-16T01:09:54.493Z,66.63
2023-04-16T01:12:20.902Z,66.73
2023-04-16T01:14:47.441Z,65.67
2023-04-16T01:17:13.863Z,65.46
2023-04-16T01:19:40.291Z,67.89
2023-04-16T01:22:06.826Z,68.02
2023-04-16T01:24:33.262Z,66.54
2023-04-16T01:26:59.698Z,65.74
2023-04-16T01:29:26.117Z,66.68
2023-04-16T01:31:52.583Z,67.32
2023-04-16T01:34:19.568Z,67.93
2023-04-16T01:36:48.159Z,68.86
2023-04-16T01:39:14.998Z,69.31
2023-04-16T01:41:41.431Z,68.24
2023-04-16T01:44:07.851Z,66.44
2023-04-16T01:46:34.375Z,65.77
2023-04-16T01:49:00.878Z,66.14
2023-04-16T01:51:27.687Z,65.85
2023-04-16T01:53:55.298Z,65.53
2023-04-16T01:56:23.874Z,65.11
2023-04-16T01:58:50.313Z,65.79
2023-04-16T02:01:16.724Z,65.78
2023-04-16T02:03:43.243Z,66.39
2023-04-16T02:06:09.793Z,65.14
2023-04-16T02:08:36.189Z,64.47
2023-04-16T02:11:02.602Z,62.93
2023-04-16T02:13:29.044Z,63.29
2023-04-16T02:15:55.457Z,61.85
2023-04-16T02:18:21.879Z,63.03
2023-04-16T02:20:48.303Z,61.75
2023-04-16T02:23:14.699Z,63.86
2023-04-16T02:25:41.093Z,64.67
2023-04-16T02:28:07.510Z,63.44
2023-04-16T02:30:33.906Z,63.39
2023-04-16T02:33:00.344Z,64.19
2023-04-16T02:35:26.742Z,63.71
2023-04-16T02:37:53.174Z,63.28
2023-04-16T02:40:19.607Z,61.18
2023-04-16T02:42:46.016Z,59.95
2023-04-16T02:45:12.445Z,61.45
2023-04-16T02:47:38.900Z,60.88
2023-04-16T02:50:05.336Z,62.32
2023-04-16T02:52:31.747Z,63.15
2023-04-16T02:54:58.139Z,63.44
2023-04-16T02:57:24.564Z,62.93
2023-04-16T02:59:50.971Z,63.12
2023-04-16T03:02:17.423Z,63.11
2023-04-16T03:04:44.534Z,63.39
2023-04-16T03:07:11.997Z,64.98
2023-04-16T03:09:38.612Z,64.71
2023-04-16T03:12:05.063Z,65.21
2023-04-16T03:14:31.808Z,64.60
2023-04-16T03:16:58.205Z,63.44
2023-04-16T03:19:24.969Z,63.89
2023-04-16T03:21:51.386Z,64.43
2023-04-16T03:24:17.792Z,64.62
2023-04-16T03:26:44.195Z,64.67
2023-04-16T03:29:10.850Z,63.55
2023-04-16T03:31:37.596Z,63.17
2023-04-16T03:34:04.121Z,62.78
2023-04-16T03:36:30.549Z,62.78
2023-04-16T03:38:57.134Z,62.41
2023-04-16T03:41:23.539Z,62.47
2023-04-16T03:43:49.976Z,63.29
2023-04-16T03:46:17.476Z,64.16
2023-04-16T03:48:43.919Z,62.57
2023-04-16T03:51:10.296Z,62.58
2023-04-16T03:53:36.740Z,63.73
2023-04-16T03:56:03.115Z,63.82
2023-04-16T03:58:29.548Z,64.46
2023-04-16T04:00:55.942Z,66.02
2023-04-16T04:03:22.475Z,65.16
2023-04-16T04:05:49.051Z,65.22
2023-04-16T04:08:15.453Z,64.47
2023-04-16T04:10:41.884Z,63.02
2023-04-16T04:13:08.275Z,64.80
2023-04-16T04:15:34.720Z,64.97
2023-04-16T04:18:01.176Z,65.14
2023-04-16T04:20:27.594Z,65.98
2023-04-16T04:22:54.006Z,65.21
2023-04-16T04:25:20.433Z,65.57
2023-04-16T04:27:46.849Z,66.54
2023-04-16T04:30:13.276Z,66.35
2023-04-16T04:32:39.722Z,65.23
2023-04-16T04:35:06.193Z,66.20
2023-04-16T04:37:32.597Z,66.16
2023-04-16T04:39:59.049Z,66.72
2023-04-16T04:42:25.567Z,66.11
2023-04-16T04:44:52.038Z,63.17
2023-04-16T04:47:18.500Z,65.21
2023-04-16T04:49:44.986Z,64.81
2023-04-16T04:52:11.400Z,64.44
2023-04-16T04:54:37.846Z,64.86
2023-04-16T04:57:04.308Z,65.07
2023-04-16T04:59:30.722Z,64.80
2023-04-16T05:01:57.174Z,64.47
2023-04-16T05:04:23.628Z,64.34
2023-04-16T05:06:50.017Z,63.03
2023-04-16T05:09:16.452Z,63.99
2023-04-16T05:11:42.909Z,63.23
2023-04-16T05:14:09.335Z,63.83
2023-04-16T05:16:35.803Z,62.08
2023-04-16T05:19:02.321Z,62.43
2023-04-16T05:21:30.045Z,64.23
2023-04-16T05:23:56.514Z,64.41
2023-04-16T05:26:23.010Z,64.94
2023-04-16T05:28:49.428Z,64.09
2023-04-16T05:31:15.959Z,64.81
2023-04-16T05:33:42.372Z,64.68
2023-04-16T05:36:08.789Z,63.37
2023-04-16T05:38:35.209Z,64.28
2023-04-16T05:41:01.617Z,64.25
2023-04-16T05:43:28.049Z,63.25
2023-04-16T05:45:54.535Z,64.57
2023-04-16T05:48:21.126Z,63.98
2023-04-16T05:50:47.540Z,63.82
2023-04-16T05:53:13.955Z,64.22
2023-04-16T05:55:40.399Z,64.52
2023-04-16T05:58:06.817Z,65.53
2023-04-16T06:00:33.237Z,65.65
2023-04-16T06:02:59.949Z,65.51
2023-04-16T06:05:26.565Z,65.93
2023-04-16T06:07:53.014Z,67.53
2023-04-16T06:10:19.410Z,68.37
2023-04-16T06:12:45.809Z,65.88
2023-04-16T06:15:12.218Z,67.81
2023-04-16T06:17:38.648Z,67.98
2023-04-16T06:20:05.171Z,68.07
2023-04-16T06:22:31.584Z,67.26
2023-04-16T06:24:58.152Z,65.81
2023-04-16T06:27:24.545Z,66.83
2023-04-16T06:29:51.169Z,67.40
2023-04-16T06:32:18.777Z,63.71
2023-04-16T06:34:47.304Z,63.54
2023-04-16T06:37:13.904Z,63.20
2023-04-16T06:39:40.321Z,63.13
2023-04-16T06:42:07.181Z,63.74
2023-04-16T06:44:33.756Z,62.75
2023-04-16T06:47:01.395Z,63.36
2023-04-16T06:49:28.938Z,62.52
2023-04-16T06:51:56.536Z,62.38
2023-04-16T06:54:23.080Z,63.26
2023-04-16T06:56:49.531Z,62.84
2023-04-16T06:59:16.829Z,63.22
2023-04-16T07:01:45.017Z,62.16
2023-04-16T07:04:14.063Z,63.88
2023-04-16T07:06:42.118Z,63.83
2023-04-16T07:09:09.950Z,64.45
2023-04-16T07:11:37.334Z,65.99
2023-04-16T07:14:05.943Z,66.15
2023-04-16T07:16:33.555Z,66.12
2023-04-16T07:19:01.109Z,66.79
2023-04-16T07:21:28.712Z,67.39
2023-04-16T07:23:56.303Z,66.60
2023-04-16T07:26:22.901Z,66.05
2023-04-16T07:28:50.480Z,64.11
2023-04-16T07:31:18.111Z,64.63
2023-04-16T07:33:44.953Z,64.05
2023-04-16T07:36:13.233Z,64.16
2023-04-16T07:38:40.853Z,62.26
2023-04-16T07:41:08.456Z,61.57
2023-04-16T07:43:36.079Z,60.67
2023-04-16T07:46:04.705Z,63.14
2023-04-16T07:48:32.268Z,62.93
2023-04-16T07:51:00.873Z,62.65
2023-04-16T07:53:28.450Z,63.27
2023-04-16T07:55:56.040Z,62.44
2023-04-16T07:58:23.638Z,62.56
2023-04-16T08:00:51.236Z,62.20
2023-04-16T08:03:18.987Z,62.46
2023-04-16T08:05:46.411Z,62.13
2023-04-16T08:08:14.024Z,60.61
2023-04-16T08:10:41.604Z,60.66
2023-04-16T08:13:09.186Z,58.59
2023-04-16T08:15:36.883Z,60.79
2023-04-16T08:18:05.432Z,61.05
2023-04-16T08:20:33.977Z,60.88
2023-04-16T08:23:01.595Z,63.37
2023-04-16T08:25:30.158Z,63.53
2023-04-16T08:27:56.752Z,62.59
2023-04-16T08:30:24.349Z,60.88
2023-04-16T08:32:51.979Z,60.79
2023-04-16T08:35:20.521Z,59.88
2023-04-16T08:37:47.113Z,60.50
2023-04-16T08:40:13.725Z,61.60
2023-04-16T08:42:40.445Z,60.16
2023-04-16T08:45:07.891Z,60.01
2023-04-16T08:47:36.546Z,62.56
2023-04-16T08:50:04.075Z,61.10
2023-04-16T08:52:32.670Z,59.75
2023-04-16T08:55:00.256Z,58.78
2023-04-16T08:57:27.865Z,59.63
2023-04-16T08:59:55.460Z,60.29
2023-04-16T09:02:24.130Z,61.23
2023-04-16T09:04:51.673Z,59.87
2023-04-16T09:07:19.215Z,60.43
2023-04-16T09:09:47.834Z,60.51
2023-04-16T09:12:14.408Z,60.07
2023-04-16T09:14:42.089Z,60.73
2023-04-16T09:17:09.598Z,61.21
2023-04-16T09:19:36.490Z,61.09
2023-04-16T09:22:04.779Z,60.90
2023-04-16T09:24:32.382Z,62.02
2023-04-16T09:26:59.960Z,61.11
2023-04-16T09:29:29.128Z,60.59
2023-04-16T09:31:57.175Z,61.22
2023-04-16T09:34:24.748Z,60.54
2023-04-16T09:36:52.383Z,60.04
2023-04-16T09:39:19.992Z,59.26
2023-04-16T09:41:47.551Z,60.37
2023-04-16T09:44:16.134Z,60.05
2023-04-16T09:46:43.736Z,60.15
2023-04-16T09:49:12.605Z,60.13
2023-04-16T09:51:39.935Z,59.44
2023-04-16T09:54:08.530Z,59.43
2023-04-16T09:56:36.118Z,58.89
2023-04-16T09:59:03.704Z,58.63
2023-04-16T10:01:31.335Z,58.79
2023-04-16T10:04:00.043Z,59.16
2023-04-16T10:06:28.509Z,58.29
2023-04-16T10:08:57.308Z,60.12
2023-04-16T10:11:27.062Z,58.17
2023-04-16T10:14:28.281Z,57.76
2023-04-16T10:16:53.086Z,58.68
2023-04-16T10:19:20.646Z,57.98
2023-04-16T10:21:48.242Z,57.81
2023-04-16T10:24:15.816Z,58.32
2023-04-16T10:26:44.656Z,58.33
2023-04-16T10:29:12.236Z,58.55
2023-04-16T10:31:39.634Z,57.86
2023-04-16T10:34:07.199Z,58.57
2023-04-16T10:36:34.786Z,58.02
2023-04-16T10:39:02.444Z,57.58
2023-04-16T10:41:31.033Z,57.35
2023-04-16T10:43:58.644Z,57.09
2023-04-16T10:46:26.241Z,57.92
2023-04-16T10:48:53.813Z,57.49
2023-04-16T10:51:21.419Z,56.50
2023-04-16T10:53:49.010Z,55.83
2023-04-16T10:56:16.585Z,56.03
2023-04-16T10:58:45.462Z,56.14
2023-04-16T11:52:26.254Z,58.81
2023-04-16T12:11:40.906Z,56.76
2023-04-16T12:16:53.260Z,54.94
2023-04-16T12:19:43.660Z,54.22
2023-04-16T12:22:12.434Z,55.27
2023-04-16T12:24:41.371Z,53.10
2023-04-16T12:29:58.580Z,53.72
2023-04-16T12:32:28.680Z,53.36
2023-04-16T12:35:03.096Z,54.10
2023-04-16T12:37:36.289Z,54.66
2023-04-16T12:42:59.203Z,55.73
2023-04-16T12:48:10.986Z,55.19
2023-04-16T12:53:26.296Z,54.44
2023-04-16T13:12:23.500Z,52.87
2023-04-16T13:14:52.489Z,53.91
2023-04-16T13:17:33.158Z,54.41
2023-04-16T13:20:13.757Z,52.83
2023-04-16T13:25:31.788Z,53.14
2023-04-16T13:28:02.429Z,52.16
2023-04-16T13:30:40.023Z,51.96
2023-04-16T13:41:23.220Z,52.64
2023-04-16T14:19:36.182Z,54.67
2023-04-16T14:39:06.278Z,58.01
